createdAt,value
2017-09-20T00:00:55.229Z,0
2017-09-20T00:02:09.762Z,0
2017-09-20T00:03:24.374Z,0
2017-09-20T00:04:39.062Z,0
2017-09-20T00:05:54.812Z,0
2017-09-20T00:07:11.535Z,0
2017-09-20T00:08:25.817Z,0
2017-09-20T00:09:40.055Z,0
2017-09-20T00:10:55.377Z,0
2017-09-20T00:12:10.981Z,0
2017-09-20T00:13:25.212Z,0
2017-09-20T00:14:39.918Z,0
2017-09-20T00:15:55.988Z,0
2017-09-20T00:17:11.397Z,0
2017-09-20T00:18:27.632Z,0
2017-09-20T00:19:43.517Z,0
2017-09-20T00:20:57.700Z,0
2017-09-20T00:22:11.634Z,0
2017-09-20T00:23:25.162Z,0
2017-09-20T00:24:39.394Z,0
2017-09-20T00:25:54.769Z,0
2017-09-20T00:27:09.203Z,0
2017-09-20T00:28:23.169Z,0
2017-09-20T00:29:36.712Z,0
2017-09-20T00:30:50.257Z,0
2017-09-20T00:32:03.868Z,0
2017-09-20T00:33:17.732Z,0
2017-09-20T00:34:31.884Z,0
2017-09-20T00:35:45.752Z,0
2017-09-20T00:36:59.251Z,0
2017-09-20T00:38:12.823Z,0
2017-09-20T00:39:26.419Z,0
2017-09-20T00:40:40.822Z,0
2017-09-20T00:41:54.759Z,0
2017-09-20T00:43:08.265Z,0
2017-09-20T00:44:21.741Z,0
2017-09-20T00:45:35.969Z,0
2017-09-20T00:46:50.844Z,0
2017-09-20T00:48:04.351Z,0
2017-09-20T00:49:17.862Z,0
2017-09-20T00:50:32.518Z,0
2017-09-20T00:51:46.393Z,0
2017-09-20T00:53:00.519Z,0
2017-09-20T00:54:14.334Z,0
2017-09-20T00:55:28.033Z,0
2017-09-20T00:56:42.282Z,0
2017-09-20T00:57:56.110Z,0
2017-09-20T00:59:09.972Z,0
2017-09-20T01:00:23.488Z,0
2017-09-20T01:01:38.486Z,0
2017-09-20T01:02:51.997Z,0
2017-09-20T01:04:06.132Z,0
2017-09-20T01:05:20.337Z,0
2017-09-20T01:06:33.805Z,0
2017-09-20T01:07:47.590Z,0
2017-09-20T01:09:01.157Z,0
2017-09-20T01:10:14.650Z,0
2017-09-20T01:11:28.473Z,0
2017-09-20T01:12:42.011Z,0
2017-09-20T01:13:55.579Z,0
2017-09-20T01:15:09.211Z,0
2017-09-20T01:16:23.109Z,0
2017-09-20T01:17:36.989Z,0
2017-09-20T01:18:50.487Z,0
2017-09-20T01:20:03.967Z,0
2017-09-20T01:21:18.112Z,0
2017-09-20T01:22:32.037Z,0
2017-09-20T01:23:45.856Z,0
2017-09-20T01:24:59.480Z,0
2017-09-20T01:26:12.967Z,0
2017-09-20T01:27:26.465Z,0
2017-09-20T01:28:39.953Z,0
2017-09-20T01:29:53.937Z,0
2017-09-20T01:31:07.442Z,0
2017-09-20T01:32:21.282Z,0
2017-09-20T01:33:34.787Z,0
2017-09-20T01:34:49.007Z,0
2017-09-20T01:36:02.886Z,0
2017-09-20T01:37:16.474Z,0
2017-09-20T01:38:29.955Z,0
2017-09-20T01:39:43.448Z,0
2017-09-20T01:40:57.022Z,0
2017-09-20T01:42:10.971Z,0
2017-09-20T01:43:24.505Z,0
2017-09-20T01:44:38.367Z,0
2017-09-20T01:45:51.950Z,0
2017-09-20T01:47:05.446Z,0
2017-09-20T01:48:19.253Z,0
2017-09-20T01:49:33.197Z,0
2017-09-20T01:50:46.674Z,0
2017-09-20T01:52:00.295Z,0
2017-09-20T01:53:13.799Z,0
2017-09-20T01:54:27.616Z,0
2017-09-20T01:55:41.106Z,0
2017-09-20T01:56:54.672Z,0
2017-09-20T01:58:08.161Z,0
2017-09-20T01:59:21.668Z,0
2017-09-20T02:00:35.485Z,0
2017-09-20T02:01:49.351Z,0
2017-09-20T02:03:02.917Z,0
2017-09-20T02:04:16.416Z,0
2017-09-20T02:05:29.938Z,0
2017-09-20T02:06:44.342Z,0
2017-09-20T02:07:57.834Z,0
2017-09-20T02:09:11.340Z,0
2017-09-20T02:10:24.839Z,0
2017-09-20T02:11:38.334Z,0
2017-09-20T02:12:52.163Z,0
2017-09-20T02:14:05.717Z,0
2017-09-20T02:15:20.220Z,0
2017-09-20T02:16:33.759Z,0
2017-09-20T02:17:47.262Z,0
2017-09-20T02:19:01.452Z,0
2017-09-20T02:20:14.948Z,0
2017-09-20T02:21:28.615Z,0
2017-09-20T02:22:42.152Z,0
2017-09-20T02:23:55.658Z,0
2017-09-20T02:25:09.479Z,0
2017-09-20T02:26:22.962Z,0
2017-09-20T02:27:36.626Z,0
2017-09-20T02:28:50.444Z,0
2017-09-20T02:30:04.018Z,0
2017-09-20T02:31:18.305Z,0
2017-09-20T02:32:31.770Z,0
2017-09-20T02:33:45.276Z,0
2017-09-20T02:34:59.384Z,0
2017-09-20T02:36:12.982Z,0
2017-09-20T02:37:26.932Z,0
2017-09-20T02:38:40.425Z,0
2017-09-20T02:39:53.944Z,0
2017-09-20T02:41:08.021Z,0
2017-09-20T02:42:21.533Z,0
2017-09-20T02:43:35.373Z,0
2017-09-20T02:44:48.882Z,0
2017-09-20T02:46:02.368Z,0
2017-09-20T02:47:16.116Z,0
2017-09-20T02:48:29.942Z,0
2017-09-20T02:49:43.731Z,0
2017-09-20T02:50:57.285Z,0
2017-09-20T02:52:10.775Z,0
2017-09-20T02:53:24.753Z,0
2017-09-20T02:54:39.444Z,0
2017-09-20T02:55:53.378Z,0
2017-09-20T02:57:06.957Z,0
2017-09-20T02:58:33.512Z,0
2017-09-20T02:59:47.464Z,0
2017-09-20T03:01:01.064Z,0
2017-09-20T03:02:14.846Z,0
2017-09-20T03:03:28.384Z,0
2017-09-20T03:04:41.917Z,0
2017-09-20T03:05:55.449Z,0
2017-09-20T03:07:09.000Z,0
2017-09-20T03:08:22.853Z,0
2017-09-20T03:09:36.761Z,0
2017-09-20T03:10:50.773Z,0
2017-09-20T03:12:04.297Z,0
2017-09-20T03:13:24.795Z,0
2017-09-20T03:14:40.563Z,0
2017-09-20T03:15:54.190Z,0
2017-09-20T03:17:07.764Z,0
2017-09-20T03:18:21.313Z,0
2017-09-20T03:19:34.852Z,0
2017-09-20T03:20:48.769Z,0
2017-09-20T03:22:02.354Z,0
2017-09-20T03:23:16.298Z,0
2017-09-20T03:24:30.622Z,0
2017-09-20T03:25:44.986Z,0
2017-09-20T03:26:58.996Z,0
2017-09-20T03:28:13.779Z,0
2017-09-20T03:29:27.384Z,0
2017-09-20T03:30:42.371Z,0
2017-09-20T03:31:57.266Z,0
2017-09-20T03:33:12.512Z,0
2017-09-20T03:34:27.122Z,0
2017-09-20T03:35:41.321Z,0
2017-09-20T03:36:55.159Z,0
2017-09-20T03:38:09.010Z,0
2017-09-20T03:39:22.839Z,0
2017-09-20T03:40:37.023Z,0
2017-09-20T03:41:50.842Z,0
2017-09-20T03:43:04.332Z,0
2017-09-20T03:44:17.864Z,0
2017-09-20T03:45:31.644Z,0
2017-09-20T03:46:45.130Z,0
2017-09-20T03:47:58.645Z,0
2017-09-20T03:49:12.338Z,0
2017-09-20T03:50:25.967Z,0
2017-09-20T03:51:39.766Z,0
2017-09-20T03:52:53.263Z,0
2017-09-20T03:54:06.794Z,0
2017-09-20T03:55:20.627Z,0
2017-09-20T03:56:34.132Z,0
2017-09-20T03:57:48.031Z,0
2017-09-20T03:59:01.507Z,0
2017-09-20T04:00:15.140Z,0
2017-09-20T04:01:28.736Z,0
2017-09-20T04:02:42.775Z,0
2017-09-20T04:03:56.606Z,0
2017-09-20T04:05:10.143Z,0
2017-09-20T04:06:24.244Z,0
2017-09-20T04:07:37.728Z,0
2017-09-20T04:08:51.458Z,0
2017-09-20T04:10:05.325Z,0
2017-09-20T04:11:18.937Z,0
2017-09-20T04:12:33.069Z,0
2017-09-20T04:13:46.617Z,0
2017-09-20T04:15:00.117Z,0
2017-09-20T04:16:14.106Z,0
2017-09-20T04:17:28.002Z,0
2017-09-20T04:18:41.536Z,0
2017-09-20T04:19:55.079Z,0
2017-09-20T04:21:08.584Z,0
2017-09-20T04:22:22.607Z,0
2017-09-20T04:23:36.921Z,0
2017-09-20T04:24:50.784Z,0
2017-09-20T04:26:04.314Z,0
2017-09-20T04:27:18.169Z,0
2017-09-20T04:28:32.161Z,0
2017-09-20T04:29:46.516Z,0
2017-09-20T04:31:00.082Z,0
2017-09-20T04:32:13.678Z,0
2017-09-20T04:33:27.191Z,0
2017-09-20T04:34:40.994Z,0
2017-09-20T04:35:54.512Z,0
2017-09-20T04:37:08.031Z,0
2017-09-20T04:38:21.498Z,0
2017-09-20T04:39:34.983Z,0
2017-09-20T04:40:48.805Z,0
2017-09-20T04:42:02.811Z,0
2017-09-20T04:43:16.665Z,0
2017-09-20T04:44:30.205Z,0
2017-09-20T04:45:43.877Z,0
2017-09-20T04:46:57.676Z,0
2017-09-20T04:48:11.512Z,0
2017-09-20T04:49:25.358Z,0
2017-09-20T04:50:39.394Z,0
2017-09-20T04:51:52.890Z,0
2017-09-20T04:53:06.879Z,0
2017-09-20T04:54:20.370Z,0
2017-09-20T04:55:34.128Z,0
2017-09-20T04:56:47.651Z,0
2017-09-20T04:58:01.379Z,0
2017-09-20T04:59:15.204Z,0
2017-09-20T05:00:28.695Z,0
2017-09-20T05:01:42.176Z,0
2017-09-20T05:02:56.685Z,0
2017-09-20T05:04:10.239Z,0
2017-09-20T05:05:24.764Z,0
2017-09-20T05:06:38.325Z,0
2017-09-20T05:07:51.860Z,0
2017-09-20T05:09:06.179Z,0
2017-09-20T05:10:19.672Z,0
2017-09-20T05:11:33.464Z,0
2017-09-20T05:12:46.975Z,0
2017-09-20T05:14:00.518Z,0
2017-09-20T05:15:14.224Z,0
2017-09-20T05:16:27.723Z,0
2017-09-20T05:17:42.141Z,5
2017-09-20T05:18:55.654Z,5
2017-09-20T05:20:09.204Z,5
2017-09-20T05:21:23.258Z,5
2017-09-20T05:22:37.329Z,5
2017-09-20T05:23:51.163Z,5
2017-09-20T05:25:04.764Z,10
2017-09-20T05:26:18.253Z,10
2017-09-20T05:27:31.848Z,10
2017-09-20T05:28:45.347Z,10
2017-09-20T05:29:59.320Z,10
2017-09-20T05:31:12.819Z,10
2017-09-20T05:32:26.366Z,5
2017-09-20T05:33:40.547Z,5
2017-09-20T05:34:54.648Z,5
2017-09-20T05:36:08.968Z,5
2017-09-20T05:37:22.673Z,10
2017-09-20T05:38:36.165Z,10
2017-09-20T05:39:51.402Z,10
2017-09-20T05:41:05.255Z,10
2017-09-20T05:42:19.985Z,10
2017-09-20T05:43:41.565Z,15
2017-09-20T05:44:55.533Z,15
2017-09-20T05:46:09.092Z,20
2017-09-20T05:47:22.717Z,20
2017-09-20T05:48:36.831Z,20
2017-09-20T05:49:50.808Z,25
2017-09-20T05:51:04.300Z,25
2017-09-20T05:52:17.923Z,25
2017-09-20T05:53:31.566Z,25
2017-09-20T05:54:45.704Z,30
2017-09-20T05:55:59.214Z,30
2017-09-20T05:57:12.801Z,30
2017-09-20T05:58:26.617Z,30
2017-09-20T05:59:40.106Z,30
2017-09-20T06:00:54.083Z,25
2017-09-20T06:02:07.797Z,25
2017-09-20T06:03:21.287Z,25
2017-09-20T06:04:35.765Z,25
2017-09-20T06:05:49.288Z,25
2017-09-20T06:07:03.247Z,25
2017-09-20T06:08:16.755Z,25
2017-09-20T06:09:30.650Z,25
2017-09-20T06:10:44.256Z,25
2017-09-20T06:11:57.740Z,25
2017-09-20T06:13:11.609Z,25
2017-09-20T06:14:25.446Z,25
2017-09-20T06:15:38.948Z,25
2017-09-20T06:16:52.450Z,25
2017-09-20T06:18:06.140Z,25
2017-09-20T06:19:20.034Z,25
2017-09-20T06:20:33.553Z,30
2017-09-20T06:21:47.105Z,35
2017-09-20T06:23:00.815Z,35
2017-09-20T06:24:14.356Z,40
2017-09-20T06:25:29.053Z,40
2017-09-20T06:26:43.005Z,40
2017-09-20T06:27:56.516Z,40
2017-09-20T06:29:10.255Z,40
2017-09-20T06:30:24.057Z,40
2017-09-20T06:31:37.963Z,35
2017-09-20T06:32:51.543Z,40
2017-09-20T06:34:05.069Z,40
2017-09-20T06:35:18.814Z,35
2017-09-20T06:36:32.749Z,35
2017-09-20T06:37:46.606Z,30
2017-09-20T06:39:00.186Z,30
2017-09-20T06:40:13.783Z,30
2017-09-20T06:41:27.408Z,35
2017-09-20T06:42:41.090Z,40
2017-09-20T06:43:55.533Z,40
2017-09-20T06:45:09.108Z,45
2017-09-20T06:46:22.801Z,50
2017-09-20T06:47:37.248Z,55
2017-09-20T06:48:51.384Z,60
2017-09-20T06:50:05.417Z,70
2017-09-20T06:51:19.235Z,70
2017-09-20T06:52:33.160Z,70
2017-09-20T06:53:47.210Z,70
2017-09-20T06:55:00.827Z,70
2017-09-20T06:56:14.785Z,75
2017-09-20T06:57:28.358Z,85
2017-09-20T06:58:41.902Z,90
2017-09-20T06:59:55.734Z,100
2017-09-20T07:01:09.536Z,105
2017-09-20T07:02:23.327Z,105
2017-09-20T07:03:37.025Z,110
2017-09-20T07:04:50.869Z,105
2017-09-20T07:06:04.737Z,105
2017-09-20T07:07:18.336Z,105
2017-09-20T07:08:32.243Z,105
2017-09-20T07:09:46.488Z,105
2017-09-20T07:10:59.999Z,100
2017-09-20T07:12:14.176Z,95
2017-09-20T07:13:28.238Z,95
2017-09-20T07:14:42.472Z,100
2017-09-20T07:15:56.033Z,110
2017-09-20T07:17:09.965Z,120
2017-09-20T07:18:24.372Z,130
2017-09-20T07:19:38.272Z,140
2017-09-20T07:20:52.202Z,145
2017-09-20T07:22:05.824Z,145
2017-09-20T07:23:19.364Z,140
2017-09-20T07:24:33.225Z,120
2017-09-20T07:25:47.047Z,110
2017-09-20T07:27:00.870Z,95
2017-09-20T07:28:14.847Z,90
2017-09-20T07:29:29.098Z,80
2017-09-20T07:30:42.767Z,85
2017-09-20T07:31:57.367Z,90
2017-09-20T07:33:11.444Z,90
2017-09-20T07:34:25.397Z,95
2017-09-20T07:35:40.159Z,95
2017-09-20T07:36:54.153Z,95
2017-09-20T07:38:08.314Z,95
2017-09-20T07:39:22.641Z,100
2017-09-20T07:40:36.221Z,110
2017-09-20T07:41:49.825Z,115
2017-09-20T07:43:03.448Z,125
2017-09-20T07:44:17.005Z,130
2017-09-20T07:45:30.844Z,135
2017-09-20T07:46:44.771Z,140
2017-09-20T07:47:58.686Z,140
2017-09-20T07:49:12.262Z,145
2017-09-20T07:50:25.767Z,145
2017-09-20T07:51:39.908Z,145
2017-09-20T07:52:53.684Z,145
2017-09-20T07:54:07.403Z,145
2017-09-20T07:55:20.929Z,150
2017-09-20T07:56:34.440Z,145
2017-09-20T07:57:48.308Z,145
2017-09-20T07:59:01.926Z,150
2017-09-20T08:00:15.506Z,145
2017-09-20T08:01:29.223Z,150
2017-09-20T08:02:42.871Z,150
2017-09-20T08:03:56.886Z,160
2017-09-20T08:05:11.156Z,165
2017-09-20T08:06:25.103Z,170
2017-09-20T08:07:39.565Z,170
2017-09-20T08:09:12.630Z,170
2017-09-20T08:10:26.152Z,165
2017-09-20T08:11:40.175Z,150
2017-09-20T08:12:54.244Z,145
2017-09-20T08:14:08.140Z,135
2017-09-20T08:15:22.075Z,130
2017-09-20T08:16:35.660Z,120
2017-09-20T08:17:49.331Z,110
2017-09-20T08:19:03.171Z,105
2017-09-20T08:20:16.708Z,100
2017-09-20T08:21:30.816Z,100
2017-09-20T08:22:44.306Z,100
2017-09-20T08:23:57.841Z,105
2017-09-20T08:25:11.775Z,110
2017-09-20T08:26:25.749Z,110
2017-09-20T08:27:40.174Z,110
2017-09-20T08:28:54.241Z,110
2017-09-20T08:30:07.821Z,110
2017-09-20T08:31:21.536Z,105
2017-09-20T08:32:35.044Z,110
2017-09-20T08:33:48.941Z,115
2017-09-20T08:35:02.444Z,120
2017-09-20T08:36:16.648Z,120
2017-09-20T08:37:30.340Z,125
2017-09-20T08:38:43.876Z,125
2017-09-20T08:39:57.704Z,130
2017-09-20T08:41:11.575Z,130
2017-09-20T08:42:25.592Z,135
2017-09-20T08:43:39.299Z,140
2017-09-20T08:44:52.793Z,140
2017-09-20T08:46:06.773Z,145
2017-09-20T08:47:20.289Z,150
2017-09-20T08:48:33.865Z,150
2017-09-20T08:49:47.454Z,150
2017-09-20T08:51:01.006Z,145
2017-09-20T08:52:15.046Z,135
2017-09-20T08:53:28.991Z,130
2017-09-20T08:54:42.817Z,125
2017-09-20T08:55:56.368Z,125
2017-09-20T08:57:09.873Z,130
2017-09-20T08:58:23.958Z,130
2017-09-20T08:59:37.491Z,125
2017-09-20T09:00:51.048Z,125
2017-09-20T09:02:04.596Z,120
2017-09-20T09:03:18.147Z,125
2017-09-20T09:04:32.051Z,130
2017-09-20T09:05:45.584Z,135
2017-09-20T09:06:59.165Z,135
2017-09-20T09:08:12.717Z,130
2017-09-20T09:09:26.280Z,130
2017-09-20T09:10:59.330Z,140
2017-09-20T09:12:13.061Z,155
2017-09-20T09:13:27.040Z,160
2017-09-20T09:14:40.799Z,165
2017-09-20T09:15:54.361Z,170
2017-09-20T09:17:08.178Z,170
2017-09-20T09:18:21.658Z,165
2017-09-20T09:19:35.206Z,170
2017-09-20T09:20:48.779Z,175
2017-09-20T09:22:03.130Z,175
2017-09-20T09:23:17.068Z,185
2017-09-20T09:24:30.923Z,190
2017-09-20T09:25:44.503Z,200
2017-09-20T09:26:58.232Z,205
2017-09-20T09:28:11.756Z,215
2017-09-20T09:29:25.804Z,225
2017-09-20T09:30:39.369Z,230
2017-09-20T09:31:52.856Z,230
2017-09-20T09:33:06.716Z,235
2017-09-20T09:34:20.620Z,230
2017-09-20T09:35:34.948Z,225
2017-09-20T09:36:48.485Z,215
2017-09-20T09:38:02.038Z,200
2017-09-20T09:39:15.556Z,190
2017-09-20T09:40:29.308Z,180
2017-09-20T09:41:44.120Z,175
2017-09-20T09:42:58.619Z,170
2017-09-20T09:44:12.247Z,170
2017-09-20T09:45:26.110Z,170
2017-09-20T09:46:39.978Z,170
2017-09-20T09:47:54.017Z,175
2017-09-20T09:49:07.869Z,175
2017-09-20T09:50:21.733Z,180
2017-09-20T09:51:35.717Z,190
2017-09-20T09:52:49.312Z,200
2017-09-20T09:54:02.963Z,210
2017-09-20T09:55:16.984Z,220
2017-09-20T09:56:30.538Z,235
2017-09-20T09:57:44.134Z,260
2017-09-20T09:58:57.655Z,265
2017-09-20T10:00:11.843Z,270
2017-09-20T10:01:25.690Z,265
2017-09-20T10:02:39.251Z,255
2017-09-20T10:03:52.822Z,255
2017-09-20T10:05:07.113Z,260
2017-09-20T10:06:21.252Z,265
2017-09-20T10:07:34.801Z,265
2017-09-20T10:08:48.425Z,270
2017-09-20T10:10:02.349Z,280
2017-09-20T10:11:16.565Z,290
2017-09-20T10:12:30.728Z,280
2017-09-20T10:13:44.252Z,280
2017-09-20T10:14:57.869Z,270
2017-09-20T10:16:11.644Z,260
2017-09-20T10:17:25.497Z,250
2017-09-20T10:18:39.349Z,240
2017-09-20T10:19:52.941Z,235
2017-09-20T10:21:06.459Z,230
2017-09-20T10:22:20.556Z,225
2017-09-20T10:23:34.322Z,225
2017-09-20T10:25:07.085Z,220
2017-09-20T10:26:20.658Z,220
2017-09-20T10:27:34.531Z,215
2017-09-20T10:28:48.405Z,210
2017-09-20T10:30:02.868Z,215
2017-09-20T10:31:16.976Z,210
2017-09-20T10:32:31.044Z,200
2017-09-20T10:33:44.822Z,190
2017-09-20T10:34:58.407Z,190
2017-09-20T10:36:12.374Z,185
2017-09-20T10:37:26.418Z,190
2017-09-20T10:38:40.446Z,190
2017-09-20T10:39:54.021Z,190
2017-09-20T10:41:08.150Z,190
2017-09-20T10:42:22.935Z,190
2017-09-20T10:43:37.329Z,195
2017-09-20T10:44:50.857Z,195
2017-09-20T10:46:04.576Z,190
2017-09-20T10:47:18.487Z,180
2017-09-20T10:48:32.133Z,175
2017-09-20T10:49:45.996Z,170
2017-09-20T10:50:59.859Z,165
2017-09-20T10:52:13.569Z,160
2017-09-20T10:53:27.403Z,150
2017-09-20T10:54:42.127Z,150
2017-09-20T10:55:56.472Z,150
2017-09-20T10:57:10.739Z,150
2017-09-20T10:58:24.544Z,160
2017-09-20T10:59:38.240Z,165
2017-09-20T11:00:51.777Z,165
2017-09-20T11:02:05.627Z,160
2017-09-20T11:03:19.518Z,155
2017-09-20T11:04:33.159Z,145
2017-09-20T11:05:47.217Z,135
2017-09-20T11:07:01.100Z,135
2017-09-20T11:08:15.111Z,150
2017-09-20T11:09:28.907Z,160
2017-09-20T11:10:42.938Z,175
2017-09-20T11:11:56.573Z,180
2017-09-20T11:13:10.101Z,185
2017-09-20T11:14:25.197Z,175
2017-09-20T11:15:40.135Z,170
2017-09-20T11:16:54.811Z,170
2017-09-20T11:18:09.072Z,175
2017-09-20T11:19:22.843Z,180
2017-09-20T11:20:37.536Z,195
2017-09-20T11:21:51.998Z,205
2017-09-20T11:23:05.740Z,205
2017-09-20T11:24:20.652Z,210
2017-09-20T11:25:34.792Z,210
2017-09-20T11:26:49.529Z,215
2017-09-20T11:28:03.354Z,225
2017-09-20T11:29:17.565Z,235
2017-09-20T11:30:31.702Z,240
2017-09-20T11:31:45.397Z,245
2017-09-20T11:32:59.884Z,240
2017-09-20T11:34:13.479Z,230
2017-09-20T11:35:27.211Z,220
2017-09-20T11:36:41.282Z,230
2017-09-20T11:37:54.886Z,240
2017-09-20T11:39:15.144Z,235
2017-09-20T11:40:28.846Z,220
2017-09-20T11:41:43.323Z,210
2017-09-20T11:42:57.027Z,210
2017-09-20T11:44:10.987Z,215
2017-09-20T11:45:26.196Z,230
2017-09-20T11:46:39.819Z,235
2017-09-20T11:47:53.379Z,235
2017-09-20T11:49:07.190Z,230
2017-09-20T11:50:20.783Z,240
2017-09-20T11:51:34.646Z,260
2017-09-20T11:52:48.398Z,255
2017-09-20T11:54:01.992Z,255
2017-09-20T11:55:16.159Z,245
2017-09-20T11:56:29.957Z,245
2017-09-20T11:57:43.949Z,240
2017-09-20T11:58:57.898Z,240
2017-09-20T12:00:11.906Z,215
2017-09-20T12:01:26.301Z,215
2017-09-20T12:02:39.960Z,220
2017-09-20T12:03:55.787Z,220
2017-09-20T12:05:10.568Z,220
2017-09-20T12:06:24.299Z,220
2017-09-20T12:07:37.942Z,215
2017-09-20T12:08:51.769Z,205
2017-09-20T12:10:06.558Z,190
2017-09-20T12:11:20.839Z,185
2017-09-20T12:12:34.477Z,190
2017-09-20T12:13:48.229Z,195
2017-09-20T12:15:02.311Z,210
2017-09-20T12:16:16.369Z,210
2017-09-20T12:17:30.236Z,215
2017-09-20T12:18:43.775Z,210
2017-09-20T12:19:57.366Z,215
2017-09-20T12:21:10.951Z,220
2017-09-20T12:22:25.416Z,210
2017-09-20T12:23:40.696Z,205
2017-09-20T12:24:54.720Z,205
2017-09-20T12:26:08.220Z,215
2017-09-20T12:27:22.092Z,210
2017-09-20T12:28:36.541Z,195
2017-09-20T12:29:50.542Z,185
2017-09-20T12:31:51.090Z,175
2017-09-20T12:33:05.234Z,175
2017-09-20T12:34:20.127Z,180
2017-09-20T12:35:33.657Z,180
2017-09-20T12:36:47.323Z,175
2017-09-20T12:38:00.909Z,175
2017-09-20T12:39:14.615Z,185
2017-09-20T12:40:28.914Z,195
2017-09-20T12:41:42.648Z,205
2017-09-20T12:42:56.369Z,220
2017-09-20T12:44:09.953Z,230
2017-09-20T12:45:23.788Z,235
2017-09-20T12:46:37.832Z,235
2017-09-20T12:47:51.860Z,225
2017-09-20T12:49:06.075Z,225
2017-09-20T12:50:20.160Z,215
2017-09-20T12:51:34.872Z,220
2017-09-20T12:52:49.142Z,215
2017-09-20T12:54:02.828Z,210
2017-09-20T12:55:16.790Z,205
2017-09-20T12:56:30.404Z,210
2017-09-20T12:57:44.036Z,205
2017-09-20T12:58:57.901Z,205
2017-09-20T13:00:11.816Z,190
2017-09-20T13:01:26.056Z,180
2017-09-20T13:02:39.746Z,165
2017-09-20T13:03:53.707Z,165
2017-09-20T13:05:08.633Z,155
2017-09-20T13:06:22.213Z,155
2017-09-20T13:07:35.804Z,150
2017-09-20T13:08:50.214Z,140
2017-09-20T13:10:04.922Z,130
2017-09-20T13:11:19.611Z,125
2017-09-20T13:12:36.004Z,130
2017-09-20T13:13:50.653Z,130
2017-09-20T13:15:04.573Z,140
2017-09-20T13:16:19.177Z,150
2017-09-20T13:17:33.679Z,165
2017-09-20T13:18:47.813Z,165
2017-09-20T13:20:02.771Z,165
2017-09-20T13:21:17.469Z,165
2017-09-20T13:22:31.129Z,155
2017-09-20T13:23:44.951Z,145
2017-09-20T13:24:58.832Z,140
2017-09-20T13:26:13.108Z,135
2017-09-20T13:27:27.204Z,130
2017-09-20T13:28:40.935Z,130
2017-09-20T13:29:55.695Z,115
2017-09-20T13:31:09.644Z,105
2017-09-20T13:32:23.338Z,100
2017-09-20T13:33:37.144Z,100
2017-09-20T13:34:50.754Z,95
2017-09-20T13:36:05.693Z,95
2017-09-20T13:37:19.863Z,95
2017-09-20T13:38:33.771Z,100
2017-09-20T13:39:48.091Z,105
2017-09-20T13:41:03.031Z,110
2017-09-20T13:42:17.609Z,115
2017-09-20T13:43:31.315Z,125
2017-09-20T13:44:45.038Z,130
2017-09-20T13:45:59.373Z,130
2017-09-20T13:47:12.991Z,135
2017-09-20T13:48:27.221Z,135
2017-09-20T13:49:41.465Z,140
2017-09-20T13:50:55.596Z,140
2017-09-20T13:52:09.329Z,140
2017-09-20T13:53:23.783Z,140
2017-09-20T13:54:37.846Z,140
2017-09-20T13:55:51.693Z,140
2017-09-20T13:57:06.335Z,135
2017-09-20T13:58:26.559Z,130
2017-09-20T13:59:40.665Z,130
2017-09-20T14:00:54.728Z,135
2017-09-20T14:02:08.530Z,135
2017-09-20T14:03:54.083Z,135
2017-09-20T14:05:07.739Z,145
2017-09-20T14:06:21.941Z,145
2017-09-20T14:07:36.713Z,145
2017-09-20T14:08:50.297Z,140
2017-09-20T14:10:04.293Z,140
2017-09-20T14:11:18.896Z,140
2017-09-20T14:12:32.991Z,140
2017-09-20T14:13:46.845Z,135
2017-09-20T14:15:00.434Z,135
2017-09-20T14:16:14.431Z,135
2017-09-20T14:17:27.956Z,140
2017-09-20T14:18:42.264Z,150
2017-09-20T14:19:56.483Z,150
2017-09-20T14:21:10.082Z,140
2017-09-20T14:22:23.712Z,130
2017-09-20T14:23:37.744Z,120
2017-09-20T14:24:51.676Z,110
2017-09-20T14:26:05.373Z,110
2017-09-20T14:27:18.981Z,100
2017-09-20T14:28:33.084Z,100
2017-09-20T14:29:46.980Z,95
2017-09-20T14:31:01.742Z,95
2017-09-20T14:32:15.284Z,90
2017-09-20T14:33:29.011Z,85
2017-09-20T14:34:43.336Z,85
2017-09-20T14:35:57.776Z,85
2017-09-20T14:37:12.909Z,85
2017-09-20T14:38:26.806Z,85
2017-09-20T14:39:41.364Z,90
2017-09-20T14:40:55.083Z,90
2017-09-20T14:42:09.607Z,100
2017-09-20T14:43:23.944Z,100
2017-09-20T14:44:38.033Z,100
2017-09-20T14:45:51.999Z,105
2017-09-20T14:47:06.273Z,105
2017-09-20T14:48:21.433Z,100
2017-09-20T14:49:35.608Z,100
2017-09-20T14:50:49.599Z,95
2017-09-20T14:52:03.364Z,100
2017-09-20T14:53:17.960Z,100
2017-09-20T14:54:51.162Z,100
2017-09-20T14:56:05.100Z,100
2017-09-20T14:57:19.382Z,95
2017-09-20T14:58:33.220Z,95
2017-09-20T14:59:46.972Z,95
2017-09-20T15:01:00.945Z,95
2017-09-20T15:02:14.723Z,90
2017-09-20T15:03:28.453Z,95
2017-09-20T15:04:42.545Z,95
2017-09-20T15:05:56.290Z,90
2017-09-20T15:07:09.808Z,95
2017-09-20T15:08:23.739Z,95
2017-09-20T15:09:37.734Z,90
2017-09-20T15:10:51.281Z,90
2017-09-20T15:12:05.316Z,85
2017-09-20T15:13:18.889Z,85
2017-09-20T15:14:33.751Z,80
2017-09-20T15:15:47.477Z,80
2017-09-20T15:17:02.161Z,80
2017-09-20T15:18:15.835Z,75
2017-09-20T15:19:29.430Z,75
2017-09-20T15:20:43.841Z,75
2017-09-20T15:21:57.519Z,75
2017-09-20T15:23:11.164Z,75
2017-09-20T15:24:25.191Z,75
2017-09-20T15:25:38.741Z,75
2017-09-20T15:26:52.624Z,75
2017-09-20T15:28:06.558Z,75
2017-09-20T15:29:20.417Z,75
2017-09-20T15:30:33.950Z,75
2017-09-20T15:31:48.376Z,75
2017-09-20T15:33:02.367Z,75
2017-09-20T15:34:16.176Z,75
2017-09-20T15:35:30.141Z,70
2017-09-20T15:36:43.707Z,70
2017-09-20T15:37:57.352Z,65
2017-09-20T15:39:11.329Z,65
2017-09-20T15:40:25.463Z,60
2017-09-20T15:41:39.021Z,60
2017-09-20T15:42:52.637Z,55
2017-09-20T15:44:06.757Z,55
2017-09-20T15:45:21.048Z,50
2017-09-20T15:47:09.877Z,50
2017-09-20T15:48:23.703Z,50
2017-09-20T15:49:37.738Z,45
2017-09-20T15:50:51.913Z,45
2017-09-20T15:52:05.477Z,45
2017-09-20T15:53:19.100Z,50
2017-09-20T15:54:32.976Z,50
2017-09-20T15:55:47.078Z,55
2017-09-20T15:57:01.025Z,60
2017-09-20T16:01:14.552Z,55
2017-09-20T16:02:29.170Z,55
2017-09-20T16:03:42.918Z,55
2017-09-20T16:05:12.565Z,45
2017-09-20T16:06:29.058Z,45
2017-09-20T16:07:42.620Z,50
2017-09-20T16:08:56.349Z,45
2017-09-20T16:10:09.868Z,45
2017-09-20T16:11:23.577Z,45
2017-09-20T16:12:37.194Z,45
2017-09-20T16:13:51.213Z,45
2017-09-20T16:15:05.671Z,45
2017-09-20T16:16:19.221Z,40
2017-09-20T16:17:32.885Z,40
2017-09-20T16:18:47.167Z,40
2017-09-20T16:20:00.765Z,40
2017-09-20T16:21:14.657Z,35
2017-09-20T16:22:28.749Z,30
2017-09-20T16:23:42.574Z,25
2017-09-20T16:24:56.555Z,25
2017-09-20T16:26:10.266Z,35
2017-09-20T16:27:24.296Z,40
2017-09-20T16:28:37.903Z,30
2017-09-20T16:29:51.988Z,30
2017-09-20T16:31:08.304Z,30
2017-09-20T16:32:24.913Z,30
2017-09-20T16:33:40.104Z,25
2017-09-20T16:34:54.510Z,25
2017-09-20T16:36:09.748Z,25
2017-09-20T16:37:24.021Z,25
2017-09-20T16:38:37.916Z,20
2017-09-20T16:39:53.080Z,20
2017-09-20T16:41:07.239Z,20
2017-09-20T16:42:21.546Z,20
2017-09-20T16:43:36.327Z,20
2017-09-20T16:44:50.715Z,20
2017-09-20T16:46:04.653Z,20
2017-09-20T16:47:20.868Z,20
2017-09-20T16:48:41.161Z,20
2017-09-20T16:49:55.065Z,15
2017-09-20T16:51:09.647Z,15
2017-09-20T16:52:24.551Z,15
2017-09-20T16:53:39.617Z,20
2017-09-20T16:54:54.130Z,25
2017-09-20T16:56:08.983Z,20
2017-09-20T16:57:23.092Z,20
2017-09-20T16:58:38.954Z,15
2017-09-20T16:59:53.456Z,15
2017-09-20T17:01:07.575Z,15
2017-09-20T17:02:22.006Z,15
2017-09-20T17:03:36.470Z,15
2017-09-20T17:04:50.557Z,15
2017-09-20T17:06:04.489Z,10
2017-09-20T17:07:19.023Z,10
2017-09-20T17:08:33.313Z,10
2017-09-20T17:09:48.020Z,10
2017-09-20T17:11:02.491Z,10
2017-09-20T17:12:17.040Z,10
2017-09-20T17:13:30.962Z,10
2017-09-20T17:14:46.110Z,10
2017-09-20T17:16:00.624Z,10
2017-09-20T17:17:14.608Z,5
2017-09-20T17:18:29.448Z,5
2017-09-20T17:19:43.315Z,5
2017-09-20T17:20:57.457Z,5
2017-09-20T17:22:17.480Z,5
2017-09-20T17:23:31.556Z,5
2017-09-20T17:24:45.818Z,5
2017-09-20T17:26:01.674Z,0
2017-09-20T17:27:15.615Z,0
2017-09-20T17:28:29.178Z,0
2017-09-20T17:29:43.886Z,0
2017-09-20T17:30:57.481Z,0
2017-09-20T17:32:11.132Z,0
2017-09-20T17:33:25.203Z,0
2017-09-20T17:34:39.055Z,0
2017-09-20T17:35:52.846Z,0
2017-09-20T17:37:06.912Z,0
2017-09-20T17:38:21.256Z,0